Chatuge Observed Data For Previous 48 Hours

Caption
Day and Hour Reservoir Elevation (behind dam)* Tailwater Elevation (below dam)* Average Hourly Discharge*
4/22/2018 2 AM EDT 1,922.45 1,802.36 0
4/22/2018 3 AM EDT 1,922.45 1,802.36 0
4/22/2018 4 AM EDT 1,922.46 1,802.36 0
4/22/2018 5 AM EDT 1,922.46 1,802.36 0
4/22/2018 6 AM EDT 1,922.47 1,802.36 0
4/22/2018 7 AM EDT 1,922.47 1,802.36 0
4/22/2018 8 AM EDT 1,922.48 1,802.36 0
4/22/2018 9 AM EDT 1,922.48 1,803.80 31
4/22/2018 10 AM EDT 1,922.48 1,803.83 783
4/22/2018 11 AM EDT 1,922.48 1,803.27 0
4/22/2018 12 PM EDT 1,922.48 1,802.91 0
4/22/2018 1 PM EDT 1,922.49 1,802.55 0
4/22/2018 2 PM EDT 1,922.49 1,802.36 0
4/22/2018 3 PM EDT 1,922.50 1,802.36 0
4/22/2018 4 PM EDT 1,922.50 1,802.35 0
4/22/2018 5 PM EDT 1,922.51 1,802.35 0
4/22/2018 6 PM EDT 1,922.52 1,802.35 0
4/22/2018 7 PM EDT 1,922.53 1,802.35 0
4/22/2018 8 PM EDT 1,922.53 1,802.36 0
4/22/2018 9 PM EDT 1,922.54 1,803.81 28
4/22/2018 10 PM EDT 1,922.54 1,803.80 774
4/22/2018 11 PM EDT 1,922.54 1,803.25 0
4/23/2018 12 AM EDT 1,922.55 1,802.91 0
4/23/2018 1 AM EDT 1,922.55 1,802.54 0
4/23/2018 2 AM EDT 1,922.56 1,802.36 0
4/23/2018 3 AM EDT 1,922.56 1,802.35 0
4/23/2018 4 AM EDT 1,922.58 1,802.35 0
4/23/2018 5 AM EDT 1,922.61 1,802.36 0
4/23/2018 6 AM EDT 1,922.63 1,802.35 0
4/23/2018 7 AM EDT 1,922.66 1,802.35 0
4/23/2018 8 AM EDT 1,922.68 1,802.89 0
4/23/2018 9 AM EDT 1,922.72 1,803.42 17
4/23/2018 10 AM EDT 1,922.74 1,803.84 776
4/23/2018 11 AM EDT 1,922.76 1,803.28 0
4/23/2018 12 PM EDT 1,922.79 1,802.92 0
4/23/2018 1 PM EDT 1,922.82 1,802.58 0
4/23/2018 2 PM EDT 1,922.84 1,802.36 0
4/23/2018 3 PM EDT 1,922.87 1,802.36 0
4/23/2018 4 PM EDT 1,922.90 1,802.59 0
4/23/2018 5 PM EDT 1,922.93 1,802.83 0
4/23/2018 6 PM EDT 1,922.96 1,803.06 0
4/23/2018 7 PM EDT 1,922.98 1,803.29 0
4/23/2018 8 PM EDT 1,923.01 1,803.53 0
4/23/2018 9 PM EDT 1,923.03 1,803.76 29
4/23/2018 10 PM EDT 1,923.06 1,803.83 768
4/23/2018 11 PM EDT 1,923.09 1,803.27 0
4/24/2018 12 AM EDT 1,923.11 1,802.93 0
4/24/2018 1 AM EDT 1,923.13 1,802.58 0
4/24/2018 2 AM EDT 1,923.16 1,802.36 0
4/24/2018 3 AM EDT 1,923.18 1,802.36 0
4/24/2018 4 AM EDT 1,923.21 1,802.36 0
4/24/2018 5 AM EDT 1,923.25 1,802.36 0
4/24/2018 6 AM EDT 1,923.28 1,802.36 0
4/24/2018 7 AM EDT 1,923.31 1,803.84 35
4/24/2018 8 AM EDT 1,923.34 1,805.91 1,320
4/24/2018 9 AM EDT 1,923.37 1,806.10 1,308
4/24/2018 10 AM EDT 1,923.41 1,806.12 1,307
4/24/2018 11 AM EDT 1,923.44 1,806.12 1,302
4/24/2018 12 PM EDT 1,923.46 1,806.18 1,303
4/24/2018 1 PM EDT 1,923.49 1,806.23 1,372
4/24/2018 2 PM EDT 1,923.51 1,803.61 39
4/24/2018 3 PM EDT 1,923.55 1,803.19 0
4/24/2018 4 PM EDT 1,923.59 1,802.87 0
4/24/2018 5 PM EDT 1,923.63 1,802.54 0
4/24/2018 6 PM EDT 1,923.66 1,803.82 26
4/24/2018 7 PM EDT 1,923.69 1,806.02 1,342
4/24/2018 8 PM EDT 1,923.71 1,806.13 1,329
4/24/2018 9 PM EDT 1,923.72 1,806.15 1,327
4/24/2018 10 PM EDT 1,923.74 1,806.11 1,329

Elevations are in feet above sea level. Discharges are in cubic feet per second and are reported at the end of the hour.